sensor_id;sensor_type;location;lat;lon;timestamp;P1;durP1;ratioP1;P2;durP2;ratioP2
68523;SDS011;55524;51.380;13.372;2023-08-06T00:00:55;7.80;;;7.07;;
68523;SDS011;55524;51.380;13.372;2023-08-06T00:03:22;7.85;;;7.05;;
68523;SDS011;55524;51.380;13.372;2023-08-06T00:05:48;8.65;;;6.63;;
68523;SDS011;55524;51.380;13.372;2023-08-06T00:08:14;7.78;;;6.97;;
68523;SDS011;55524;51.380;13.372;2023-08-06T00:10:40;8.82;;;8.00;;
68523;SDS011;55524;51.380;13.372;2023-08-06T00:13:07;9.85;;;7.65;;
68523;SDS011;55524;51.380;13.372;2023-08-06T00:15:33;8.10;;;7.32;;
68523;SDS011;55524;51.380;13.372;2023-08-06T00:17:59;8.32;;;7.45;;
68523;SDS011;55524;51.380;13.372;2023-08-06T00:20:26;9.30;;;7.38;;
68523;SDS011;55524;51.380;13.372;2023-08-06T00:22:52;7.88;;;6.53;;
68523;SDS011;55524;51.380;13.372;2023-08-06T00:25:18;7.85;;;7.05;;
68523;SDS011;55524;51.380;13.372;2023-08-06T00:27:44;7.47;;;6.72;;
68523;SDS011;55524;51.380;13.372;2023-08-06T00:30:11;8.05;;;6.32;;
68523;SDS011;55524;51.380;13.372;2023-08-06T00:32:37;7.57;;;6.80;;
68523;SDS011;55524;51.380;13.372;2023-08-06T00:35:03;6.93;;;6.32;;
68523;SDS011;55524;51.380;13.372;2023-08-06T00:37:30;7.47;;;6.72;;
68523;SDS011;55524;51.380;13.372;2023-08-06T00:39:56;7.18;;;6.55;;
68523;SDS011;55524;51.380;13.372;2023-08-06T00:42:23;7.10;;;6.40;;
68523;SDS011;55524;51.380;13.372;2023-08-06T00:44:49;6.85;;;6.13;;
68523;SDS011;55524;51.380;13.372;2023-08-06T00:47:15;6.63;;;5.90;;
68523;SDS011;55524;51.380;13.372;2023-08-06T00:49:42;5.90;;;5.40;;
68523;SDS011;55524;51.380;13.372;2023-08-06T00:52:08;6.55;;;5.95;;
68523;SDS011;55524;51.380;13.372;2023-08-06T00:54:35;6.28;;;5.63;;
68523;SDS011;55524;51.380;13.372;2023-08-06T00:57:02;6.47;;;5.88;;
68523;SDS011;55524;51.380;13.372;2023-08-06T00:59:29;6.45;;;5.85;;
68523;SDS011;55524;51.380;13.372;2023-08-06T01:01:57;6.97;;;5.93;;
68523;SDS011;55524;51.380;13.372;2023-08-06T01:04:23;6.55;;;5.97;;
68523;SDS011;55524;51.380;13.372;2023-08-06T01:12:05;6.80;;;6.10;;
68523;SDS011;55524;51.380;13.372;2023-08-06T01:14:53;6.45;;;5.95;;
68523;SDS011;55524;51.380;13.372;2023-08-06T01:17:37;6.22;;;5.72;;
68523;SDS011;55524;51.380;13.372;2023-08-06T01:20:05;7.25;;;6.20;;
68523;SDS011;55524;51.380;13.372;2023-08-06T01:22:31;7.45;;;6.35;;
68523;SDS011;55524;51.380;13.372;2023-08-06T01:24:58;6.53;;;5.93;;
68523;SDS011;55524;51.380;13.372;2023-08-06T01:30:29;7.20;;;6.60;;
68523;SDS011;55524;51.380;13.372;2023-08-06T01:33:01;7.10;;;6.50;;
68523;SDS011;55524;51.380;13.372;2023-08-06T01:35:31;7.72;;;6.45;;
68523;SDS011;55524;51.380;13.372;2023-08-06T01:38:00;7.82;;;7.03;;
68523;SDS011;55524;51.380;13.372;2023-08-06T01:40:27;7.68;;;6.90;;
68523;SDS011;55524;51.380;13.372;2023-08-06T01:42:54;13.10;;;6.55;;
68523;SDS011;55524;51.380;13.372;2023-08-06T01:45:20;7.03;;;6.35;;
68523;SDS011;55524;51.380;13.372;2023-08-06T01:47:47;7.88;;;7.18;;
68523;SDS011;55524;51.380;13.372;2023-08-06T01:50:13;7.57;;;6.80;;
68523;SDS011;55524;51.380;13.372;2023-08-06T01:52:39;7.85;;;6.68;;
68523;SDS011;55524;51.380;13.372;2023-08-06T01:55:06;7.68;;;6.88;;
68523;SDS011;55524;51.380;13.372;2023-08-06T01:57:32;9.70;;;7.30;;
68523;SDS011;55524;51.380;13.372;2023-08-06T01:59:58;7.80;;;7.10;;
68523;SDS011;55524;51.380;13.372;2023-08-06T02:02:25;8.05;;;6.57;;
68523;SDS011;55524;51.380;13.372;2023-08-06T02:04:51;9.82;;;6.75;;
68523;SDS011;55524;51.380;13.372;2023-08-06T02:07:17;9.05;;;6.63;;
68523;SDS011;55524;51.380;13.372;2023-08-06T02:09:43;7.65;;;6.95;;
68523;SDS011;55524;51.380;13.372;2023-08-06T02:12:10;7.13;;;6.45;;
68523;SDS011;55524;51.380;13.372;2023-08-06T02:14:36;7.45;;;6.63;;
68523;SDS011;55524;51.380;13.372;2023-08-06T02:17:02;6.78;;;6.18;;
68523;SDS011;55524;51.380;13.372;2023-08-06T02:19:28;7.28;;;6.50;;
68523;SDS011;55524;51.380;13.372;2023-08-06T02:21:54;7.68;;;6.60;;
68523;SDS011;55524;51.380;13.372;2023-08-06T02:24:21;7.22;;;6.53;;
68523;SDS011;55524;51.380;13.372;2023-08-06T02:26:47;7.07;;;5.75;;
68523;SDS011;55524;51.380;13.372;2023-08-06T02:29:16;7.03;;;6.43;;
68523;SDS011;55524;51.380;13.372;2023-08-06T02:31:42;7.15;;;6.45;;
68523;SDS011;55524;51.380;13.372;2023-08-06T02:34:08;7.80;;;6.70;;
68523;SDS011;55524;51.380;13.372;2023-08-06T02:36:35;8.18;;;6.43;;
68523;SDS011;55524;51.380;13.372;2023-08-06T02:39:01;7.90;;;7.13;;
68523;SDS011;55524;51.380;13.372;2023-08-06T02:41:27;8.68;;;7.63;;
68523;SDS011;55524;51.380;13.372;2023-08-06T02:43:53;7.88;;;6.95;;
68523;SDS011;55524;51.380;13.372;2023-08-06T02:46:20;9.30;;;7.20;;
68523;SDS011;55524;51.380;13.372;2023-08-06T02:48:46;9.38;;;7.05;;
68523;SDS011;55524;51.380;13.372;2023-08-06T02:51:12;8.07;;;7.20;;
68523;SDS011;55524;51.380;13.372;2023-08-06T02:53:39;8.55;;;7.00;;
68523;SDS011;55524;51.380;13.372;2023-08-06T02:56:05;9.23;;;7.53;;
68523;SDS011;55524;51.380;13.372;2023-08-06T02:58:31;9.45;;;8.05;;
68523;SDS011;55524;51.380;13.372;2023-08-06T03:01:01;8.13;;;7.30;;
68523;SDS011;55524;51.380;13.372;2023-08-06T03:03:32;9.32;;;7.35;;
68523;SDS011;55524;51.380;13.372;2023-08-06T03:05:59;9.05;;;7.63;;
68523;SDS011;55524;51.380;13.372;2023-08-06T03:08:26;8.48;;;7.68;;
68523;SDS011;55524;51.380;13.372;2023-08-06T03:10:53;7.35;;;6.65;;
68523;SDS011;55524;51.380;13.372;2023-08-06T03:13:19;8.68;;;7.72;;
68523;SDS011;55524;51.380;13.372;2023-08-06T03:15:52;8.55;;;7.65;;
68523;SDS011;55524;51.380;13.372;2023-08-06T03:18:23;10.80;;;7.88;;
68523;SDS011;55524;51.380;13.372;2023-08-06T03:20:50;7.95;;;7.22;;
68523;SDS011;55524;51.380;13.372;2023-08-06T03:23:18;8.23;;;7.32;;
68523;SDS011;55524;51.380;13.372;2023-08-06T03:25:44;8.82;;;7.53;;
68523;SDS011;55524;51.380;13.372;2023-08-06T03:28:11;8.02;;;7.22;;
68523;SDS011;55524;51.380;13.372;2023-08-06T03:30:37;8.02;;;7.28;;
68523;SDS011;55524;51.380;13.372;2023-08-06T03:33:04;10.02;;;7.60;;
68523;SDS011;55524;51.380;13.372;2023-08-06T03:35:30;7.95;;;7.15;;
68523;SDS011;55524;51.380;13.372;2023-08-06T03:37:56;8.50;;;7.70;;
68523;SDS011;55524;51.380;13.372;2023-08-06T03:40:22;7.85;;;7.13;;
68523;SDS011;55524;51.380;13.372;2023-08-06T03:42:49;8.13;;;7.32;;
68523;SDS011;55524;51.380;13.372;2023-08-06T03:45:15;7.65;;;6.93;;
68523;SDS011;55524;51.380;13.372;2023-08-06T03:47:41;10.60;;;7.20;;
68523;SDS011;55524;51.380;13.372;2023-08-06T03:50:07;9.40;;;6.95;;
68523;SDS011;55524;51.380;13.372;2023-08-06T03:52:34;9.20;;;7.22;;
68523;SDS011;55524;51.380;13.372;2023-08-06T03:55:00;8.63;;;7.35;;
68523;SDS011;55524;51.380;13.372;2023-08-06T03:57:27;10.07;;;7.47;;
68523;SDS011;55524;51.380;13.372;2023-08-06T03:59:53;10.50;;;7.60;;
68523;SDS011;55524;51.380;13.372;2023-08-06T04:02:19;9.18;;;7.85;;
68523;SDS011;55524;51.380;13.372;2023-08-06T04:04:46;9.55;;;8.15;;
68523;SDS011;55524;51.380;13.372;2023-08-06T04:07:12;8.20;;;7.40;;
68523;SDS011;55524;51.380;13.372;2023-08-06T04:09:57;11.20;;;8.00;;
68523;SDS011;55524;51.380;13.372;2023-08-06T04:12:25;8.57;;;7.68;;
68523;SDS011;55524;51.380;13.372;2023-08-06T04:14:52;11.27;;;8.45;;
68523;SDS011;55524;51.380;13.372;2023-08-06T04:17:19;8.68;;;7.78;;
68523;SDS011;55524;51.380;13.372;2023-08-06T04:19:50;8.48;;;7.60;;
68523;SDS011;55524;51.380;13.372;2023-08-06T04:24:43;8.73;;;7.68;;
68523;SDS011;55524;51.380;13.372;2023-08-06T04:27:10;8.07;;;7.38;;
68523;SDS011;55524;51.380;13.372;2023-08-06T04:29:37;8.25;;;7.45;;
68523;SDS011;55524;51.380;13.372;2023-08-06T04:32:05;11.32;;;7.45;;
68523;SDS011;55524;51.380;13.372;2023-08-06T04:34:32;8.80;;;7.80;;
68523;SDS011;55524;51.380;13.372;2023-08-06T04:36:59;8.15;;;7.32;;
68523;SDS011;55524;51.380;13.372;2023-08-06T04:39:26;10.25;;;7.35;;
68523;SDS011;55524;51.380;13.372;2023-08-06T04:41:52;7.85;;;7.15;;
68523;SDS011;55524;51.380;13.372;2023-08-06T04:44:19;8.43;;;7.53;;
68523;SDS011;55524;51.380;13.372;2023-08-06T04:46:45;8.55;;;7.75;;
68523;SDS011;55524;51.380;13.372;2023-08-06T04:49:12;9.27;;;7.95;;
68523;SDS011;55524;51.380;13.372;2023-08-06T04:51:38;8.20;;;7.40;;
68523;SDS011;55524;51.380;13.372;2023-08-06T04:54:04;8.18;;;7.38;;
68523;SDS011;55524;51.380;13.372;2023-08-06T04:56:30;7.80;;;7.00;;
68523;SDS011;55524;51.380;13.372;2023-08-06T04:58:58;8.10;;;6.97;;
68523;SDS011;55524;51.380;13.372;2023-08-06T05:01:25;9.10;;;6.82;;
68523;SDS011;55524;51.380;13.372;2023-08-06T05:03:51;9.15;;;6.72;;
68523;SDS011;55524;51.380;13.372;2023-08-06T05:06:17;7.68;;;6.97;;
68523;SDS011;55524;51.380;13.372;2023-08-06T05:08:44;8.25;;;6.38;;
68523;SDS011;55524;51.380;13.372;2023-08-06T05:11:10;7.90;;;7.18;;
68523;SDS011;55524;51.380;13.372;2023-08-06T05:13:36;8.68;;;7.68;;
68523;SDS011;55524;51.380;13.372;2023-08-06T05:16:03;7.90;;;7.20;;
68523;SDS011;55524;51.380;13.372;2023-08-06T05:18:29;7.97;;;7.18;;
68523;SDS011;55524;51.380;13.372;2023-08-06T05:20:55;8.73;;;7.72;;
68523;SDS011;55524;51.380;13.372;2023-08-06T05:23:22;8.73;;;7.57;;
68523;SDS011;55524;51.380;13.372;2023-08-06T05:25:48;8.35;;;7.55;;
68523;SDS011;55524;51.380;13.372;2023-08-06T05:28:14;8.88;;;7.18;;
68523;SDS011;55524;51.380;13.372;2023-08-06T05:30:41;8.02;;;6.95;;
68523;SDS011;55524;51.380;13.372;2023-08-06T05:33:07;8.20;;;7.43;;
68523;SDS011;55524;51.380;13.372;2023-08-06T05:35:34;8.93;;;7.65;;
68523;SDS011;55524;51.380;13.372;2023-08-06T05:38:00;8.60;;;7.80;;
68523;SDS011;55524;51.380;13.372;2023-08-06T05:40:26;7.50;;;6.80;;
68523;SDS011;55524;51.380;13.372;2023-08-06T05:42:53;9.57;;;6.93;;
68523;SDS011;55524;51.380;13.372;2023-08-06T05:45:20;8.20;;;7.40;;
68523;SDS011;55524;51.380;13.372;2023-08-06T05:47:49;8.85;;;6.97;;
68523;SDS011;55524;51.380;13.372;2023-08-06T05:50:15;8.82;;;7.90;;
68523;SDS011;55524;51.380;13.372;2023-08-06T05:52:42;9.00;;;8.07;;
68523;SDS011;55524;51.380;13.372;2023-08-06T05:55:08;8.57;;;7.78;;
68523;SDS011;55524;51.380;13.372;2023-08-06T05:57:34;9.32;;;8.32;;
68523;SDS011;55524;51.380;13.372;2023-08-06T06:00:01;9.75;;;7.43;;
68523;SDS011;55524;51.380;13.372;2023-08-06T06:02:28;8.48;;;7.68;;
68523;SDS011;55524;51.380;13.372;2023-08-06T06:04:54;12.13;;;8.27;;
68523;SDS011;55524;51.380;13.372;2023-08-06T06:07:21;10.38;;;8.10;;
68523;SDS011;55524;51.380;13.372;2023-08-06T06:09:47;10.52;;;8.27;;
68523;SDS011;55524;51.380;13.372;2023-08-06T06:12:13;10.27;;;7.93;;
68523;SDS011;55524;51.380;13.372;2023-08-06T06:14:39;13.68;;;8.55;;
68523;SDS011;55524;51.380;13.372;2023-08-06T06:17:06;10.52;;;8.57;;
68523;SDS011;55524;51.380;13.372;2023-08-06T06:19:32;12.10;;;8.90;;
68523;SDS011;55524;51.380;13.372;2023-08-06T06:21:58;10.25;;;8.70;;
68523;SDS011;55524;51.380;13.372;2023-08-06T06:24:24;8.82;;;7.93;;
68523;SDS011;55524;51.380;13.372;2023-08-06T06:26:51;9.15;;;8.13;;
68523;SDS011;55524;51.380;13.372;2023-08-06T06:29:17;9.13;;;8.20;;
68523;SDS011;55524;51.380;13.372;2023-08-06T06:31:43;8.98;;;8.07;;
68523;SDS011;55524;51.380;13.372;2023-08-06T06:34:09;8.70;;;7.53;;
68523;SDS011;55524;51.380;13.372;2023-08-06T06:36:36;7.45;;;6.78;;
68523;SDS011;55524;51.380;13.372;2023-08-06T06:39:02;8.48;;;6.93;;
68523;SDS011;55524;51.380;13.372;2023-08-06T06:41:28;7.50;;;6.85;;
68523;SDS011;55524;51.380;13.372;2023-08-06T06:43:56;5.95;;;5.45;;
68523;SDS011;55524;51.380;13.372;2023-08-06T06:46:23;5.55;;;5.05;;
68523;SDS011;55524;51.380;13.372;2023-08-06T06:48:49;4.93;;;4.53;;
68523;SDS011;55524;51.380;13.372;2023-08-06T06:51:16;5.15;;;4.75;;
68523;SDS011;55524;51.380;13.372;2023-08-06T06:53:42;5.88;;;5.30;;
68523;SDS011;55524;51.380;13.372;2023-08-06T06:56:08;5.55;;;4.90;;
68523;SDS011;55524;51.380;13.372;2023-08-06T06:58:34;5.28;;;4.88;;
68523;SDS011;55524;51.380;13.372;2023-08-06T07:01:02;6.68;;;6.03;;
68523;SDS011;55524;51.380;13.372;2023-08-06T07:03:28;6.05;;;4.93;;
68523;SDS011;55524;51.380;13.372;2023-08-06T07:05:57;6.35;;;4.63;;
68523;SDS011;55524;51.380;13.372;2023-08-06T07:08:24;5.53;;;4.82;;
68523;SDS011;55524;51.380;13.372;2023-08-06T07:10:50;5.53;;;5.00;;
68523;SDS011;55524;51.380;13.372;2023-08-06T07:13:24;6.18;;;4.78;;
68523;SDS011;55524;51.380;13.372;2023-08-06T07:15:50;4.63;;;4.25;;
68523;SDS011;55524;51.380;13.372;2023-08-06T07:18:17;5.00;;;4.50;;
68523;SDS011;55524;51.380;13.372;2023-08-06T07:20:47;6.45;;;5.38;;
68523;SDS011;55524;51.380;13.372;2023-08-06T07:23:14;42.17;;;7.93;;
68523;SDS011;55524;51.380;13.372;2023-08-06T07:25:40;7.05;;;5.00;;
68523;SDS011;55524;51.380;13.372;2023-08-06T07:28:07;47.47;;;9.48;;
68523;SDS011;55524;51.380;13.372;2023-08-06T07:30:38;17.80;;;6.88;;
68523;SDS011;55524;51.380;13.372;2023-08-06T07:33:07;13.50;;;7.28;;
68523;SDS011;55524;51.380;13.372;2023-08-06T07:35:34;18.15;;;6.90;;
68523;SDS011;55524;51.380;13.372;2023-08-06T07:38:01;7.35;;;6.68;;
68523;SDS011;55524;51.380;13.372;2023-08-06T07:40:28;9.95;;;7.22;;
68523;SDS011;55524;51.380;13.372;2023-08-06T07:42:56;8.30;;;7.35;;
68523;SDS011;55524;51.380;13.372;2023-08-06T07:45:33;10.52;;;7.47;;
68523;SDS011;55524;51.380;13.372;2023-08-06T07:48:01;10.07;;;7.00;;
68523;SDS011;55524;51.380;13.372;2023-08-06T07:50:28;10.50;;;6.70;;
68523;SDS011;55524;51.380;13.372;2023-08-06T07:52:54;9.15;;;8.25;;
68523;SDS011;55524;51.380;13.372;2023-08-06T07:55:21;8.02;;;7.32;;
68523;SDS011;55524;51.380;13.372;2023-08-06T07:57:47;10.57;;;7.93;;
68523;SDS011;55524;51.380;13.372;2023-08-06T08:00:14;14.38;;;7.72;;
68523;SDS011;55524;51.380;13.372;2023-08-06T08:02:40;9.05;;;6.88;;
68523;SDS011;55524;51.380;13.372;2023-08-06T08:05:06;8.15;;;7.45;;
68523;SDS011;55524;51.380;13.372;2023-08-06T08:07:33;8.68;;;7.78;;
68523;SDS011;55524;51.380;13.372;2023-08-06T08:09:59;12.30;;;8.52;;
68523;SDS011;55524;51.380;13.372;2023-08-06T08:12:26;10.02;;;8.43;;
68523;SDS011;55524;51.380;13.372;2023-08-06T08:14:54;10.88;;;9.00;;
68523;SDS011;55524;51.380;13.372;2023-08-06T08:17:21;12.13;;;9.20;;
68523;SDS011;55524;51.380;13.372;2023-08-06T08:19:49;8.95;;;8.15;;
68523;SDS011;55524;51.380;13.372;2023-08-06T08:22:17;11.68;;;8.85;;
68523;SDS011;55524;51.380;13.372;2023-08-06T08:24:46;8.70;;;7.25;;
68523;SDS011;55524;51.380;13.372;2023-08-06T08:27:13;9.57;;;7.35;;
68523;SDS011;55524;51.380;13.372;2023-08-06T08:29:41;8.30;;;6.75;;
68523;SDS011;55524;51.380;13.372;2023-08-06T08:32:08;8.43;;;6.78;;
68523;SDS011;55524;51.380;13.372;2023-08-06T08:34:36;6.70;;;6.10;;
68523;SDS011;55524;51.380;13.372;2023-08-06T08:37:04;9.00;;;6.18;;
68523;SDS011;55524;51.380;13.372;2023-08-06T08:39:33;20.05;;;6.13;;
68523;SDS011;55524;51.380;13.372;2023-08-06T08:42:00;11.27;;;5.40;;
68523;SDS011;55524;51.380;13.372;2023-08-06T08:44:29;5.47;;;5.00;;
68523;SDS011;55524;51.380;13.372;2023-08-06T08:46:57;7.03;;;5.43;;
68523;SDS011;55524;51.380;13.372;2023-08-06T08:49:29;6.10;;;5.13;;
68523;SDS011;55524;51.380;13.372;2023-08-06T08:51:58;7.57;;;4.85;;
68523;SDS011;55524;51.380;13.372;2023-08-06T08:54:33;4.63;;;4.00;;
68523;SDS011;55524;51.380;13.372;2023-08-06T08:57:04;5.90;;;4.47;;
68523;SDS011;55524;51.380;13.372;2023-08-06T08:59:32;6.90;;;4.20;;
68523;SDS011;55524;51.380;13.372;2023-08-06T09:02:00;5.07;;;4.45;;
68523;SDS011;55524;51.380;13.372;2023-08-06T09:04:28;7.40;;;4.70;;
68523;SDS011;55524;51.380;13.372;2023-08-06T09:07:00;6.28;;;5.15;;
68523;SDS011;55524;51.380;13.372;2023-08-06T09:09:33;5.07;;;4.57;;
68523;SDS011;55524;51.380;13.372;2023-08-06T09:12:05;11.40;;;5.40;;
68523;SDS011;55524;51.380;13.372;2023-08-06T09:14:39;6.95;;;4.47;;
68523;SDS011;55524;51.380;13.372;2023-08-06T09:17:07;5.35;;;4.85;;
68523;SDS011;55524;51.380;13.372;2023-08-06T09:19:36;5.40;;;4.90;;
68523;SDS011;55524;51.380;13.372;2023-08-06T09:22:12;7.10;;;5.93;;
68523;SDS011;55524;51.380;13.372;2023-08-06T09:24:40;7.53;;;5.95;;
68523;SDS011;55524;51.380;13.372;2023-08-06T09:27:16;7.28;;;6.57;;
68523;SDS011;55524;51.380;13.372;2023-08-06T09:29:44;10.93;;;7.68;;
68523;SDS011;55524;51.380;13.372;2023-08-06T09:32:12;11.90;;;7.35;;
68523;SDS011;55524;51.380;13.372;2023-08-06T09:34:45;8.98;;;8.10;;
68523;SDS011;55524;51.380;13.372;2023-08-06T09:37:13;10.05;;;8.70;;
68523;SDS011;55524;51.380;13.372;2023-08-06T09:39:40;10.63;;;9.52;;
68523;SDS011;55524;51.380;13.372;2023-08-06T09:42:07;11.00;;;9.85;;
68523;SDS011;55524;51.380;13.372;2023-08-06T09:44:33;13.63;;;10.48;;
68523;SDS011;55524;51.380;13.372;2023-08-06T09:47:02;13.13;;;9.70;;
68523;SDS011;55524;51.380;13.372;2023-08-06T09:51:58;13.52;;;9.15;;
68523;SDS011;55524;51.380;13.372;2023-08-06T09:54:25;11.60;;;9.55;;
68523;SDS011;55524;51.380;13.372;2023-08-06T09:56:56;11.85;;;10.68;;
68523;SDS011;55524;51.380;13.372;2023-08-06T09:59:24;14.75;;;12.40;;
68523;SDS011;55524;51.380;13.372;2023-08-06T10:01:51;13.73;;;12.32;;
68523;SDS011;55524;51.380;13.372;2023-08-06T10:04:21;12.95;;;11.57;;
68523;SDS011;55524;51.380;13.372;2023-08-06T10:06:48;13.65;;;11.93;;
68523;SDS011;55524;51.380;13.372;2023-08-06T10:09:16;18.27;;;12.65;;
68523;SDS011;55524;51.380;13.372;2023-08-06T10:11:44;13.98;;;12.43;;
68523;SDS011;55524;51.380;13.372;2023-08-06T10:14:28;17.55;;;13.52;;
68523;SDS011;55524;51.380;13.372;2023-08-06T10:17:02;14.25;;;12.50;;
68523;SDS011;55524;51.380;13.372;2023-08-06T10:19:29;14.07;;;12.65;;
68523;SDS011;55524;51.380;13.372;2023-08-06T10:22:11;14.77;;;13.05;;
68523;SDS011;55524;51.380;13.372;2023-08-06T10:27:39;12.90;;;11.70;;
68523;SDS011;55524;51.380;13.372;2023-08-06T10:30:23;13.27;;;11.00;;
68523;SDS011;55524;51.380;13.372;2023-08-06T10:32:57;11.55;;;10.35;;
68523;SDS011;55524;51.380;13.372;2023-08-06T10:35:40;13.40;;;12.10;;
68523;SDS011;55524;51.380;13.372;2023-08-06T10:38:22;11.77;;;10.50;;
68523;SDS011;55524;51.380;13.372;2023-08-06T10:43:25;14.00;;;10.68;;
68523;SDS011;55524;51.380;13.372;2023-08-06T10:46:01;12.73;;;10.52;;
68523;SDS011;55524;51.380;13.372;2023-08-06T10:50:56;12.18;;;11.02;;
68523;SDS011;55524;51.380;13.372;2023-08-06T10:53:24;13.13;;;11.60;;
68523;SDS011;55524;51.380;13.372;2023-08-06T10:55:51;12.48;;;11.05;;
68523;SDS011;55524;51.380;13.372;2023-08-06T10:58:18;14.75;;;11.23;;
68523;SDS011;55524;51.380;13.372;2023-08-06T11:00:45;14.15;;;10.45;;
68523;SDS011;55524;51.380;13.372;2023-08-06T11:03:11;11.27;;;10.18;;
68523;SDS011;55524;51.380;13.372;2023-08-06T11:05:41;16.17;;;10.32;;
68523;SDS011;55524;51.380;13.372;2023-08-06T11:08:27;15.88;;;10.55;;
68523;SDS011;55524;51.380;13.372;2023-08-06T11:10:55;19.38;;;9.52;;
68523;SDS011;55524;51.380;13.372;2023-08-06T11:13:32;10.32;;;9.32;;
68523;SDS011;55524;51.380;13.372;2023-08-06T11:15:59;9.80;;;8.90;;
68523;SDS011;55524;51.380;13.372;2023-08-06T11:18:26;9.63;;;8.15;;
68523;SDS011;55524;51.380;13.372;2023-08-06T11:20:54;9.35;;;8.45;;
68523;SDS011;55524;51.380;13.372;2023-08-06T11:23:25;9.60;;;8.75;;
68523;SDS011;55524;51.380;13.372;2023-08-06T11:25:53;9.02;;;8.23;;
68523;SDS011;55524;51.380;13.372;2023-08-06T11:28:21;10.77;;;8.23;;
68523;SDS011;55524;51.380;13.372;2023-08-06T11:30:47;9.50;;;7.93;;
68523;SDS011;55524;51.380;13.372;2023-08-06T11:33:19;8.75;;;7.57;;
68523;SDS011;55524;51.380;13.372;2023-08-06T11:35:48;8.52;;;7.65;;
68523;SDS011;55524;51.380;13.372;2023-08-06T11:38:16;8.30;;;7.55;;
68523;SDS011;55524;51.380;13.372;2023-08-06T11:40:50;8.50;;;7.70;;
68523;SDS011;55524;51.380;13.372;2023-08-06T11:43:18;14.10;;;7.30;;
68523;SDS011;55524;51.380;13.372;2023-08-06T11:45:47;11.18;;;7.10;;
68523;SDS011;55524;51.380;13.372;2023-08-06T11:48:19;21.63;;;7.70;;
68523;SDS011;55524;51.380;13.372;2023-08-06T11:50:46;16.65;;;7.05;;
68523;SDS011;55524;51.380;13.372;2023-08-06T11:53:13;6.75;;;6.15;;
68523;SDS011;55524;51.380;13.372;2023-08-06T11:55:40;7.75;;;6.53;;
68523;SDS011;55524;51.380;13.372;2023-08-06T11:58:08;5.82;;;5.22;;
68523;SDS011;55524;51.380;13.372;2023-08-06T12:00:38;7.18;;;6.40;;
68523;SDS011;55524;51.380;13.372;2023-08-06T12:03:05;5.60;;;5.10;;
68523;SDS011;55524;51.380;13.372;2023-08-06T12:05:33;6.32;;;5.72;;
68523;SDS011;55524;51.380;13.372;2023-08-06T12:08:00;6.10;;;5.50;;
68523;SDS011;55524;51.380;13.372;2023-08-06T12:10:28;11.32;;;6.72;;
68523;SDS011;55524;51.380;13.372;2023-08-06T12:12:56;13.43;;;5.28;;
68523;SDS011;55524;51.380;13.372;2023-08-06T12:15:26;5.97;;;5.38;;
68523;SDS011;55524;51.380;13.372;2023-08-06T12:17:54;5.22;;;4.82;;
68523;SDS011;55524;51.380;13.372;2023-08-06T12:20:21;5.03;;;4.30;;
68523;SDS011;55524;51.380;13.372;2023-08-06T12:22:48;4.72;;;4.32;;
68523;SDS011;55524;51.380;13.372;2023-08-06T12:25:15;8.43;;;5.18;;
68523;SDS011;55524;51.380;13.372;2023-08-06T12:27:43;5.90;;;4.38;;
68523;SDS011;55524;51.380;13.372;2023-08-06T12:30:11;5.63;;;4.00;;
68523;SDS011;55524;51.380;13.372;2023-08-06T12:32:38;6.22;;;4.32;;
68523;SDS011;55524;51.380;13.372;2023-08-06T12:35:05;4.40;;;4.00;;
68523;SDS011;55524;51.380;13.372;2023-08-06T12:37:32;59.72;;;8.90;;
68523;SDS011;55524;51.380;13.372;2023-08-06T12:39:59;4.28;;;3.42;;
68523;SDS011;55524;51.380;13.372;2023-08-06T12:42:25;3.88;;;3.13;;
68523;SDS011;55524;51.380;13.372;2023-08-06T12:44:51;3.60;;;3.30;;
68523;SDS011;55524;51.380;13.372;2023-08-06T12:47:18;3.70;;;3.40;;
68523;SDS011;55524;51.380;13.372;2023-08-06T12:49:45;5.03;;;2.88;;
68523;SDS011;55524;51.380;13.372;2023-08-06T12:52:11;3.42;;;3.13;;
68523;SDS011;55524;51.380;13.372;2023-08-06T12:54:40;4.80;;;2.85;;
68523;SDS011;55524;51.380;13.372;2023-08-06T12:57:06;2.90;;;2.75;;
68523;SDS011;55524;51.380;13.372;2023-08-06T12:59:32;3.22;;;2.92;;
68523;SDS011;55524;51.380;13.372;2023-08-06T13:02:01;4.10;;;3.25;;
68523;SDS011;55524;51.380;13.372;2023-08-06T13:04:27;3.53;;;3.33;;
68523;SDS011;55524;51.380;13.372;2023-08-06T13:06:54;3.00;;;2.78;;
68523;SDS011;55524;51.380;13.372;2023-08-06T13:09:20;3.63;;;3.33;;
68523;SDS011;55524;51.380;13.372;2023-08-06T13:11:49;3.88;;;3.58;;
68523;SDS011;55524;51.380;13.372;2023-08-06T13:14:15;3.60;;;3.17;;
68523;SDS011;55524;51.380;13.372;2023-08-06T13:16:42;3.67;;;3.10;;
68523;SDS011;55524;51.380;13.372;2023-08-06T13:19:10;3.00;;;2.80;;
68523;SDS011;55524;51.380;13.372;2023-08-06T13:24:07;4.90;;;2.75;;
68523;SDS011;55524;51.380;13.372;2023-08-06T13:26:34;2.90;;;2.60;;
68523;SDS011;55524;51.380;13.372;2023-08-06T13:29:00;5.07;;;2.97;;
68523;SDS011;55524;51.380;13.372;2023-08-06T13:31:28;3.95;;;2.55;;
68523;SDS011;55524;51.380;13.372;2023-08-06T13:33:54;2.90;;;2.63;;
68523;SDS011;55524;51.380;13.372;2023-08-06T13:36:23;4.35;;;3.10;;
68523;SDS011;55524;51.380;13.372;2023-08-06T13:38:49;3.13;;;2.90;;
68523;SDS011;55524;51.380;13.372;2023-08-06T13:41:16;3.72;;;3.17;;
68523;SDS011;55524;51.380;13.372;2023-08-06T13:43:42;2.90;;;2.70;;
68523;SDS011;55524;51.380;13.372;2023-08-06T13:46:09;3.20;;;2.90;;
68523;SDS011;55524;51.380;13.372;2023-08-06T13:48:41;3.08;;;2.83;;
68523;SDS011;55524;51.380;13.372;2023-08-06T13:51:09;4.80;;;2.40;;
68523;SDS011;55524;51.380;13.372;2023-08-06T13:53:36;2.70;;;2.50;;
68523;SDS011;55524;51.380;13.372;2023-08-06T13:56:04;3.30;;;3.00;;
68523;SDS011;55524;51.380;13.372;2023-08-06T13:58:31;2.90;;;2.70;;
68523;SDS011;55524;51.380;13.372;2023-08-06T14:00:58;3.22;;;2.40;;
68523;SDS011;55524;51.380;13.372;2023-08-06T14:03:24;8.98;;;2.95;;
68523;SDS011;55524;51.380;13.372;2023-08-06T14:05:51;4.70;;;3.00;;
68523;SDS011;55524;51.380;13.372;2023-08-06T14:08:20;2.67;;;2.47;;
68523;SDS011;55524;51.380;13.372;2023-08-06T14:10:48;3.38;;;2.83;;
68523;SDS011;55524;51.380;13.372;2023-08-06T14:13:14;2.30;;;2.10;;
68523;SDS011;55524;51.380;13.372;2023-08-06T14:15:41;4.40;;;2.90;;
68523;SDS011;55524;51.380;13.372;2023-08-06T14:18:11;2.83;;;2.38;;
68523;SDS011;55524;51.380;13.372;2023-08-06T14:20:42;2.55;;;2.38;;
68523;SDS011;55524;51.380;13.372;2023-08-06T14:23:08;3.38;;;2.20;;
68523;SDS011;55524;51.380;13.372;2023-08-06T14:25:35;2.22;;;2.10;;
68523;SDS011;55524;51.380;13.372;2023-08-06T14:28:02;13.77;;;2.20;;
68523;SDS011;55524;51.380;13.372;2023-08-06T14:30:29;3.15;;;2.20;;
68523;SDS011;55524;51.380;13.372;2023-08-06T14:32:55;3.63;;;2.47;;
68523;SDS011;55524;51.380;13.372;2023-08-06T14:35:21;2.42;;;2.05;;
68523;SDS011;55524;51.380;13.372;2023-08-06T14:37:48;6.07;;;2.42;;
68523;SDS011;55524;51.380;13.372;2023-08-06T14:40:14;8.88;;;2.50;;
68523;SDS011;55524;51.380;13.372;2023-08-06T14:42:40;2.25;;;2.03;;
68523;SDS011;55524;51.380;13.372;2023-08-06T14:45:07;2.92;;;2.30;;
68523;SDS011;55524;51.380;13.372;2023-08-06T14:47:33;17.60;;;3.40;;
68523;SDS011;55524;51.380;13.372;2023-08-06T14:49:59;26.77;;;4.13;;
68523;SDS011;55524;51.380;13.372;2023-08-06T14:52:26;5.95;;;2.80;;
68523;SDS011;55524;51.380;13.372;2023-08-06T14:54:52;4.90;;;2.25;;
68523;SDS011;55524;51.380;13.372;2023-08-06T14:57:20;3.33;;;2.55;;